»·PEaware :: FDX211 KSAN-KSNA

FDX211 :: KSAN-KSNA

FLIGHT INFORMATION

Flight Status: Arrived
Operator:
Federal Express
More flights by this operator :: More flights under this callsign
Pilot: Brenden M. (4822)
Aircraft: BOEING 757-200
(B752)
More flights by this aircraft type
Origin: KSAN San Diego Intl-Lindbergh
United States
Destination: KSNA John Wayne-Orange Co
United States
More flights between these airports :: More routes between these airports
Route: +CWARD2 SLI
File this flight plan on PilotEdge
Remarks:
Altitude:
(Current/Filed)
10,000ft
Speed:
(Current/Filed)
450kts
Departed: 04-Oct-18 01:46 PM
Arrived: 04-Oct-18 02:35 PM
Distance/Time
Traveled:
66nm/0:49
Distance/Time
To Go:
Arrived

Flight Plot

Page will automatically refresh every two minutes.

Flight plan parsing failed; only flown route is shown


Map Options




Map Legend


Flown Route
Filed Route
Departure Airport
Arrival Airport
Navaid (VOR, NDB)
Fix

Horizontal Profiles

Position Reports

Time Latitude Longitude Heading Altitude Ground
Speed
04-Oct-18 12:43 32.736530 -117.184982 354 29ft 0kts
04-Oct-18 12:44 32.736530 -117.184982 354 29ft 0kts
04-Oct-18 12:45 32.736530 -117.184982 354 29ft 0kts
04-Oct-18 12:46 32.736530 -117.184982 354 29ft 0kts
04-Oct-18 12:47 32.736530 -117.184982 354 29ft 0kts
04-Oct-18 12:48 32.736530 -117.184982 354 29ft 0kts
04-Oct-18 12:49 32.736530 -117.184982 354 29ft 0kts
04-Oct-18 12:50 32.736530 -117.184982 354 29ft 0kts
04-Oct-18 12:51 32.736530 -117.184982 354 29ft 0kts
04-Oct-18 12:52 32.736530 -117.184982 354 29ft 0kts
04-Oct-18 12:53 32.736530 -117.184982 354 29ft 0kts
04-Oct-18 12:54 32.736530 -117.184982 354 29ft 0kts
04-Oct-18 12:55 32.736530 -117.184982 354 29ft 0kts
04-Oct-18 12:56 32.736530 -117.184982 354 29ft 0kts
04-Oct-18 12:57 32.736530 -117.184982 354 29ft 0kts
04-Oct-18 12:58 32.736530 -117.184982 354 29ft 0kts
04-Oct-18 12:59 32.736530 -117.184982 354 29ft 0kts
04-Oct-18 13:00 32.736530 -117.184982 354 29ft 0kts
04-Oct-18 13:01 32.736530 -117.184982 354 29ft 0kts
04-Oct-18 13:02 32.736530 -117.184982 354 29ft 0kts
04-Oct-18 13:03 32.736530 -117.184982 354 29ft 0kts
04-Oct-18 13:04 32.736530 -117.184982 354 29ft 0kts
04-Oct-18 13:05 32.736530 -117.184982 354 29ft 0kts
04-Oct-18 13:06 32.736530 -117.184982 354 29ft 0kts
04-Oct-18 13:07 32.736530 -117.184982 354 29ft 0kts
04-Oct-18 13:08 32.736530 -117.184982 354 29ft 0kts
04-Oct-18 13:09 32.736530 -117.184982 354 29ft 0kts
04-Oct-18 13:10 32.736530 -117.184982 354 29ft 0kts
04-Oct-18 13:11 32.736530 -117.184982 354 29ft 0kts
04-Oct-18 13:12 32.736530 -117.184982 354 29ft 0kts
04-Oct-18 13:13 32.736530 -117.184982 354 29ft 0kts
04-Oct-18 13:14 32.736530 -117.184982 354 29ft 0kts
04-Oct-18 13:15 32.736530 -117.184982 354 29ft 0kts
04-Oct-18 13:16 32.736530 -117.184982 354 29ft 0kts
04-Oct-18 13:17 32.736530 -117.184982 354 29ft 0kts
04-Oct-18 13:18 32.736530 -117.184982 354 29ft 0kts
04-Oct-18 13:19 32.736530 -117.184982 354 29ft 0kts
04-Oct-18 13:20 32.736530 -117.184982 354 29ft 0kts
04-Oct-18 13:21 32.736530 -117.184982 354 29ft 0kts
04-Oct-18 13:22 32.736530 -117.184982 354 29ft 0kts
04-Oct-18 13:23 32.736530 -117.184982 354 29ft 0kts
04-Oct-18 13:24 32.736530 -117.184982 354 29ft 0kts
04-Oct-18 13:25 32.736530 -117.184982 354 29ft 0kts
04-Oct-18 13:26 32.736530 -117.184982 354 29ft 0kts
04-Oct-18 13:27 32.736530 -117.184982 354 29ft 0kts
04-Oct-18 13:28 32.736530 -117.184982 354 29ft 0kts
04-Oct-18 13:29 32.736530 -117.184982 354 29ft 0kts
04-Oct-18 13:30 32.736530 -117.184982 354 29ft 0kts
04-Oct-18 13:31 32.736530 -117.184982 354 29ft 0kts
04-Oct-18 13:32 32.736530 -117.184982 354 29ft 0kts
04-Oct-18 13:33 32.736530 -117.184982 354 29ft 0kts
04-Oct-18 13:34 32.736530 -117.184982 354 29ft 0kts
04-Oct-18 13:35 32.736530 -117.184982 354 29ft 0kts
04-Oct-18 13:36 32.736222 -117.184947 354 29ft 2kts
04-Oct-18 13:37 32.735937 -117.185175 141 29ft 0kts
04-Oct-18 13:38 32.736001 -117.185222 144 29ft 0kts
04-Oct-18 13:39 32.736001 -117.185222 144 29ft 0kts
04-Oct-18 13:40 32.735078 -117.184414 143 29ft 7kts
04-Oct-18 13:41 32.733318 -117.183714 123 29ft 7kts
04-Oct-18 13:42 32.732478 -117.180471 105 28ft 14kts
04-Oct-18 13:43 32.731737 -117.177378 105 28ft 0kts
04-Oct-18 13:44 32.731372 -117.176520 114 29ft 0kts
04-Oct-18 13:45 32.731193 -117.175990 112 29ft 6kts
04-Oct-18 13:46 32.731123 -117.175820 118 29ft 0kts
04-Oct-18 13:47 32.730258 -117.175599 252 29ft 7kts
04-Oct-18 13:48 32.738695 -117.204374 301 803ft 163kts
04-Oct-18 13:49 32.764287 -117.262156 300 3575ft 248kts
04-Oct-18 13:50 32.803171 -117.331959 308 8324ft 270kts
04-Oct-18 13:51 32.851331 -117.403397 308 9927ft 288kts
04-Oct-18 13:52 32.901223 -117.474681 316 9932ft 285kts
04-Oct-18 13:53 32.958936 -117.540135 316 9926ft 287kts
04-Oct-18 13:54 32.997387 -117.584188 311 9929ft 283kts
04-Oct-18 13:55 32.997387 -117.584188 311 9929ft 283kts
04-Oct-18 13:56 32.997387 -117.584188 311 9929ft 283kts
04-Oct-18 13:57 32.997387 -117.584188 311 9929ft 283kts
04-Oct-18 13:58 32.997387 -117.584188 311 9929ft 283kts
04-Oct-18 13:59 32.997387 -117.584188 311 9929ft 283kts
04-Oct-18 14:00 32.997387 -117.584188 311 9929ft 283kts
04-Oct-18 14:01 32.997387 -117.584188 311 9929ft 283kts
04-Oct-18 14:02 32.997387 -117.584188 311 9929ft 283kts
04-Oct-18 14:03 32.997387 -117.584188 311 9929ft 283kts
04-Oct-18 14:04 32.997387 -117.584188 311 9929ft 283kts
04-Oct-18 14:05 32.997387 -117.584188 311 9929ft 283kts
04-Oct-18 14:06 32.997387 -117.584188 311 9929ft 283kts
04-Oct-18 14:07 32.997387 -117.584188 311 9929ft 283kts
04-Oct-18 14:08 33.043647 -117.652398 309 9930ft 359kts
04-Oct-18 14:09 33.106630 -117.742020 309 10422ft 329kts
04-Oct-18 14:10 33.159211 -117.816599 309 11931ft 293kts
04-Oct-18 14:11 33.219059 -117.867197 347 11934ft 292kts
04-Oct-18 14:12 33.296161 -117.887122 348 11929ft 292kts
04-Oct-18 14:13 33.371302 -117.905906 348 11928ft 289kts
04-Oct-18 14:14 33.443827 -117.882671 21 11730ft 282kts
04-Oct-18 14:15 33.509943 -117.851296 21 9841ft 265kts
04-Oct-18 14:16 33.567983 -117.823729 21 8121ft 259kts
04-Oct-18 14:17 33.625237 -117.796510 21 6954ft 254kts
04-Oct-18 14:18 33.685045 -117.768053 21 6963ft 254kts
04-Oct-18 14:19 33.744527 -117.739724 21 6963ft 254kts
04-Oct-18 14:20 33.806605 -117.710130 21 6963ft 254kts
04-Oct-18 14:21 33.866008 -117.681785 21 6963ft 254kts
04-Oct-18 14:22 33.926420 -117.652930 21 6963ft 254kts
04-Oct-18 14:23 33.988142 -117.658423 301 6358ft 239kts
04-Oct-18 14:24 33.987259 -117.728893 261 5008ft 213kts
04-Oct-18 14:25 33.978690 -117.799417 261 4963ft 215kts
04-Oct-18 14:26 33.941404 -117.845686 201 4963ft 215kts
04-Oct-18 14:27 33.886487 -117.871989 201 4963ft 215kts
04-Oct-18 14:28 33.833023 -117.900358 212 4964ft 215kts
04-Oct-18 14:29 33.839922 -117.954713 347 4970ft 215kts
04-Oct-18 14:30 33.871499 -117.910245 91 4000ft 212kts
04-Oct-18 14:31 33.869786 -117.841071 91 2987ft 185kts
04-Oct-18 14:32 33.844227 -117.806218 204 2619ft 154kts
04-Oct-18 14:33 33.803910 -117.824391 186 2332ft 165kts
04-Oct-18 14:34 33.759738 -117.829104 185 1709ft 153kts
04-Oct-18 14:35 33.720176 -117.840663 203 1050ft 152kts
04-Oct-18 14:36 33.687352 -117.861439 207 237ft 119kts
04-Oct-18 14:37 33.669434 -117.871842 150 68ft 15kts
04-Oct-18 14:38 33.669120 -117.871184 65 68ft 0kts
04-Oct-18 14:39 33.669544 -117.870522 44 68ft 7kts
04-Oct-18 14:40 33.671003 -117.869020 39 68ft 8kts
04-Oct-18 14:41 33.672691 -117.867709 36 68ft 8kts
04-Oct-18 14:42 33.673007 -117.865860 117 68ft 0kts
04-Oct-18 14:43 33.673007 -117.865860 118 68ft 0kts
04-Oct-18 14:44 33.673007 -117.865860 118 68ft 0kts
04-Oct-18 14:45 33.673007 -117.865860 118 68ft 0kts
04-Oct-18 14:46 33.673007 -117.865860 118 68ft 0kts
04-Oct-18 14:47 33.673007 -117.865860 118 68ft 0kts
04-Oct-18 14:48 33.673007 -117.865860 118 68ft 0kts
04-Oct-18 14:49 33.673007 -117.865860 118 68ft 0kts
04-Oct-18 14:50 33.673007 -117.865860 118 68ft 0kts
04-Oct-18 14:51 33.673007 -117.865860 118 68ft 0kts

Navigation Log

Ident Type
Flight plan parsing failed, navigation log unavailable